createdAt,value
2022-09-28T00:01:20.858Z,11.72
2022-09-28T00:03:50.076Z,11.70
2022-09-28T00:06:20.896Z,11.70
2022-09-28T00:08:49.575Z,11.68
2022-09-28T00:11:18.344Z,11.64
2022-09-28T00:13:51.157Z,11.62
2022-09-28T00:16:20.940Z,11.63
2022-09-28T00:18:48.533Z,11.65
2022-09-28T00:21:19.086Z,11.64
2022-09-28T00:24:04.759Z,11.61
2022-09-28T00:26:34.144Z,11.61
2022-09-28T00:29:02.158Z,11.59
2022-09-28T00:31:32.355Z,11.59
2022-09-28T00:34:01.148Z,11.58
2022-09-28T00:36:29.732Z,11.56
2022-09-28T00:38:57.666Z,11.57
2022-09-28T00:41:27.109Z,11.59
2022-09-28T00:44:14.610Z,11.60
2022-09-28T00:46:41.609Z,11.61
2022-09-28T00:49:14.697Z,11.60
2022-09-28T00:51:43.918Z,11.60
2022-09-28T00:54:12.266Z,11.59
2022-09-28T00:56:43.256Z,11.53
2022-09-28T00:59:10.424Z,11.44
2022-09-28T01:01:37.217Z,11.24
2022-09-28T01:04:05.890Z,11.09
2022-09-28T01:06:35.634Z,11.01
2022-09-28T01:09:07.309Z,10.96
2022-09-28T01:11:37.514Z,10.92
2022-09-28T01:14:08.223Z,10.86
2022-09-28T01:17:01.822Z,10.83
2022-09-28T01:19:47.297Z,10.78
2022-09-28T01:22:51.883Z,10.77
2022-09-28T01:25:39.603Z,10.77
2022-09-28T01:28:08.649Z,10.74
2022-09-28T01:31:02.888Z,10.74
2022-09-28T01:33:55.243Z,10.75
2022-09-28T01:36:34.495Z,10.75
2022-09-28T01:39:08.469Z,10.75
2022-09-28T01:41:55.288Z,10.74
2022-09-28T01:44:43.895Z,10.73
2022-09-28T01:47:14.741Z,10.71
2022-09-28T01:49:59.379Z,10.71
2022-09-28T01:52:42.296Z,10.71
2022-09-28T01:55:25.974Z,10.72
2022-09-28T01:57:59.743Z,10.70
2022-09-28T02:00:27.687Z,10.66
2022-09-28T02:03:28.958Z,10.64
2022-09-28T02:06:05.534Z,10.65
2022-09-28T02:08:53.922Z,10.63
2022-09-28T02:11:22.569Z,10.62
2022-09-28T02:14:11.378Z,10.63
2022-09-28T02:16:44.662Z,10.64
2022-09-28T02:19:15.706Z,10.65
2022-09-28T02:21:42.450Z,10.64
2022-09-28T02:24:24.816Z,10.62
2022-09-28T02:26:54.798Z,10.61
2022-09-28T02:29:21.465Z,10.62
2022-09-28T02:31:48.831Z,10.60
2022-09-28T02:34:15.527Z,10.61
2022-09-28T02:36:44.546Z,10.60
2022-09-28T02:39:16.500Z,10.57
2022-09-28T02:42:03.194Z,10.59
2022-09-28T02:45:27.453Z,10.61
2022-09-28T02:48:12.465Z,10.62
2022-09-28T02:50:51.154Z,10.64
2022-09-28T02:53:20.885Z,10.65
2022-09-28T02:56:15.894Z,10.65
2022-09-28T02:58:51.836Z,10.64
2022-09-28T03:01:45.037Z,10.64
2022-09-28T03:04:30.470Z,10.63
2022-09-28T03:07:03.033Z,10.62
2022-09-28T03:09:46.838Z,10.62
2022-09-28T03:12:15.989Z,10.59
2022-09-28T03:14:42.538Z,10.58
2022-09-28T03:17:09.158Z,10.54
2022-09-28T03:19:36.594Z,10.54
2022-09-28T03:22:03.687Z,10.52
2022-09-28T03:24:30.264Z,10.53
2022-09-28T03:26:56.963Z,10.54
2022-09-28T03:29:23.696Z,10.53
2022-09-28T03:31:50.388Z,10.56
2022-09-28T03:34:17.138Z,10.55
2022-09-28T03:36:43.973Z,10.54
2022-09-28T03:39:10.703Z,10.56
2022-09-28T03:41:37.718Z,10.56
2022-09-28T03:44:04.741Z,10.59
2022-09-28T03:46:31.317Z,10.60
2022-09-28T03:48:58.858Z,10.59
2022-09-28T03:51:26.176Z,10.59
2022-09-28T03:53:52.888Z,10.59
2022-09-28T03:56:19.505Z,10.60
2022-09-28T03:58:46.254Z,10.62
2022-09-28T04:01:18.026Z,10.65
2022-09-28T04:03:45.927Z,10.65
2022-09-28T04:06:13.413Z,10.65
2022-09-28T04:08:40.357Z,10.65
2022-09-28T04:11:10.409Z,10.66
2022-09-28T04:13:37.009Z,10.64
2022-09-28T04:16:04.768Z,10.63
2022-09-28T04:18:32.835Z,10.61
2022-09-28T04:21:06.210Z,10.58
2022-09-28T04:23:35.173Z,10.59
2022-09-28T04:26:03.461Z,10.59
2022-09-28T04:28:48.789Z,10.58
2022-09-28T04:31:21.966Z,10.58
2022-09-28T04:33:49.310Z,10.61
2022-09-28T04:36:16.095Z,10.63
2022-09-28T04:38:52.874Z,10.62
2022-09-28T04:41:21.770Z,10.62
2022-09-28T04:43:48.901Z,10.63
2022-09-28T04:46:15.951Z,10.62
2022-09-28T04:48:43.073Z,10.62
2022-09-28T04:51:11.045Z,10.59
2022-09-28T04:53:37.948Z,10.55
2022-09-28T04:56:14.178Z,10.50
2022-09-28T04:58:41.765Z,10.46
2022-09-28T05:01:14.957Z,10.44
2022-09-28T05:03:42.169Z,10.43
2022-09-28T05:06:12.507Z,10.40
2022-09-28T05:08:39.204Z,10.38
2022-09-28T05:11:08.554Z,10.36
2022-09-28T05:13:44.844Z,10.34
2022-09-28T05:16:15.221Z,10.36
2022-09-28T05:18:42.565Z,10.35
2022-09-28T05:21:14.898Z,10.33
2022-09-28T05:23:46.778Z,10.36
2022-09-28T05:26:14.297Z,10.36
2022-09-28T05:28:40.995Z,10.35
2022-09-28T05:31:07.877Z,10.36
2022-09-28T05:33:34.525Z,10.37
2022-09-28T05:36:02.044Z,10.36
2022-09-28T05:38:29.910Z,10.36
2022-09-28T05:40:57.100Z,10.37
2022-09-28T05:43:24.044Z,10.36
2022-09-28T05:45:55.253Z,10.37
2022-09-28T05:48:22.795Z,10.38
2022-09-28T05:50:52.829Z,10.36
2022-09-28T05:53:26.105Z,10.34
2022-09-28T05:55:52.854Z,10.30
2022-09-28T05:58:19.523Z,10.32
2022-09-28T06:00:57.083Z,10.27
2022-09-28T06:03:33.724Z,10.26
2022-09-28T06:06:19.134Z,10.28
2022-09-28T06:08:47.888Z,10.28
2022-09-28T06:11:14.567Z,10.29
2022-09-28T06:13:41.238Z,10.30
2022-09-28T06:16:26.558Z,10.33
2022-09-28T06:19:12.375Z,10.38
2022-09-28T06:21:39.981Z,10.38
2022-09-28T06:24:25.515Z,10.33
2022-09-28T06:26:52.424Z,10.34
2022-09-28T06:29:37.608Z,10.38
2022-09-28T06:32:04.385Z,10.36
2022-09-28T06:34:54.026Z,10.30
2022-09-28T06:37:28.395Z,10.27
2022-09-28T06:40:14.225Z,10.26
2022-09-28T06:43:14.131Z,10.30
2022-09-28T06:45:51.667Z,10.34
2022-09-28T06:48:33.521Z,10.37
2022-09-28T06:51:19.062Z,10.38
2022-09-28T06:53:53.495Z,10.36
2022-09-28T06:56:20.745Z,10.36
2022-09-28T06:58:47.899Z,10.35
2022-09-28T07:01:14.698Z,10.44
2022-09-28T07:03:41.508Z,10.52
2022-09-28T07:06:12.225Z,10.57
2022-09-28T07:08:38.939Z,10.65
2022-09-28T07:11:07.298Z,10.72
2022-09-28T07:13:49.708Z,10.77
2022-09-28T07:16:21.541Z,10.78
2022-09-28T07:18:50.943Z,10.82
2022-09-28T07:21:27.532Z,10.82
2022-09-28T07:23:57.047Z,10.86
2022-09-28T07:26:25.168Z,10.95
2022-09-28T07:28:52.049Z,11.07
2022-09-28T07:31:19.962Z,11.22
2022-09-28T07:34:05.485Z,11.35
2022-09-28T07:36:35.279Z,11.33
2022-09-28T07:39:02.738Z,11.40
2022-09-28T07:41:32.213Z,11.51
2022-09-28T07:44:05.557Z,11.64
2022-09-28T07:46:34.036Z,11.74
2022-09-28T07:49:01.221Z,11.98
2022-09-28T07:51:27.854Z,12.09
2022-09-28T07:53:54.504Z,12.27
2022-09-28T07:56:21.207Z,12.42
2022-09-28T07:58:49.223Z,12.60
2022-09-28T08:01:17.143Z,12.83
2022-09-28T08:03:45.877Z,13.04
2022-09-28T08:06:15.978Z,13.23
2022-09-28T08:08:44.267Z,13.24
2022-09-28T08:11:16.290Z,13.44
2022-09-28T08:13:45.057Z,13.51
2022-09-28T08:16:12.256Z,13.90
2022-09-28T08:18:39.121Z,13.87
2022-09-28T08:21:24.639Z,13.72
2022-09-28T08:23:51.397Z,13.28
2022-09-28T08:26:18.061Z,13.07
2022-09-28T08:28:46.300Z,13.16
2022-09-28T08:31:12.973Z,13.25
2022-09-28T08:33:42.094Z,13.25
2022-09-28T08:36:10.895Z,13.34
2022-09-28T08:38:37.773Z,13.51
2022-09-28T08:41:04.657Z,13.40
2022-09-28T08:43:40.405Z,13.49
2022-09-28T08:46:10.422Z,13.64
2022-09-28T08:49:13.427Z,14.07
2022-09-28T08:51:57.324Z,14.43
2022-09-28T08:54:36.364Z,14.24
2022-09-28T08:57:10.798Z,14.36
2022-09-28T08:59:51.714Z,14.68
2022-09-28T09:02:26.513Z,14.81
2022-09-28T09:04:55.105Z,14.85
2022-09-28T09:07:56.044Z,15.00
2022-09-28T09:11:03.656Z,14.91
2022-09-28T09:14:27.180Z,14.77
2022-09-28T09:17:26.124Z,14.52
2022-09-28T09:19:58.267Z,14.51
2022-09-28T09:22:34.434Z,14.86
2022-09-28T09:25:14.278Z,14.90
2022-09-28T09:27:53.855Z,14.58
2022-09-28T09:30:27.886Z,14.74
2022-09-28T09:33:04.300Z,14.97
2022-09-28T09:36:01.466Z,14.86
2022-09-28T09:39:02.864Z,14.80
2022-09-28T09:41:53.780Z,15.01
2022-09-28T09:44:32.328Z,15.25
2022-09-28T09:47:08.194Z,15.47
2022-09-28T09:49:44.651Z,15.46
2022-09-28T09:55:16.428Z,16.28
2022-09-28T09:58:02.277Z,17.04
2022-09-28T10:00:29.278Z,16.67
2022-09-28T10:02:57.300Z,16.24
2022-09-28T10:05:29.298Z,16.18
2022-09-28T10:08:07.862Z,16.22
2022-09-28T10:10:38.304Z,16.33
2022-09-28T10:13:09.545Z,16.75
2022-09-28T10:15:37.415Z,17.39
2022-09-28T10:18:10.045Z,18.03
2022-09-28T10:20:42.383Z,18.19
2022-09-28T10:23:23.375Z,18.02
2022-09-28T10:25:53.668Z,18.39
2022-09-28T10:28:49.253Z,19.26
2022-09-28T10:31:37.738Z,18.85
2022-09-28T10:34:07.298Z,17.92
2022-09-28T10:36:47.074Z,17.47
2022-09-28T10:39:31.314Z,17.63
2022-09-28T10:42:04.458Z,17.96
2022-09-28T10:44:43.745Z,18.00
2022-09-28T10:47:18.035Z,17.97
2022-09-28T10:49:48.610Z,17.84
2022-09-28T10:52:41.398Z,17.64
2022-09-28T10:55:31.731Z,17.49
2022-09-28T10:57:59.884Z,18.33
2022-09-28T11:00:41.364Z,19.20
2022-09-28T11:03:22.263Z,19.55
2022-09-28T11:05:57.710Z,19.57
2022-09-28T11:08:44.523Z,19.27
2022-09-28T11:11:14.552Z,19.52
2022-09-28T11:14:01.204Z,19.25
2022-09-28T11:16:34.107Z,18.51
2022-09-28T11:19:25.992Z,18.32
2022-09-28T11:21:52.638Z,18.08
2022-09-28T11:24:25.517Z,18.39
2022-09-28T11:26:56.545Z,18.23
2022-09-28T11:29:34.196Z,17.98
2022-09-28T11:32:03.762Z,17.78
2022-09-28T11:34:59.738Z,18.22
2022-09-28T11:37:30.776Z,19.88
2022-09-28T11:40:23.071Z,20.77
2022-09-28T11:43:25.298Z,20.36
2022-09-28T11:46:05.818Z,19.26
2022-09-28T11:48:43.254Z,18.80
2022-09-28T11:51:34.130Z,18.34
2022-09-28T11:54:33.132Z,17.96
2022-09-28T11:57:04.032Z,17.56
2022-09-28T11:59:42.528Z,17.23
2022-09-28T12:02:22.099Z,16.81
2022-09-28T12:05:20.734Z,16.51
2022-09-28T12:08:01.802Z,16.28
2022-09-28T12:10:45.443Z,16.19
2022-09-28T12:13:24.820Z,16.08
2022-09-28T12:16:27.626Z,16.13
2022-09-28T12:19:04.172Z,16.23
2022-09-28T12:21:37.242Z,16.25
2022-09-28T12:24:21.049Z,16.26
2022-09-28T12:26:57.888Z,16.23
2022-09-28T12:29:30.192Z,16.81
2022-09-28T12:32:28.108Z,18.07
2022-09-28T12:34:56.155Z,19.37
2022-09-28T12:37:54.454Z,19.58
2022-09-28T12:40:35.629Z,20.01
2022-09-28T12:43:21.000Z,20.60
2022-09-28T12:46:11.525Z,19.86
2022-09-28T12:49:47.314Z,19.20
2022-09-28T12:52:01.931Z,19.13
2022-09-28T12:58:05.926Z,17.80
2022-09-28T13:00:58.586Z,18.14
2022-09-28T13:03:45.300Z,18.93
2022-09-28T13:06:46.785Z,19.09
2022-09-28T13:09:25.181Z,19.00
2022-09-28T13:12:13.710Z,18.98
2022-09-28T13:14:46.217Z,19.18
2022-09-28T13:17:40.495Z,19.97
2022-09-28T13:20:44.759Z,21.37
2022-09-28T13:23:23.628Z,22.14
2022-09-28T13:26:16.625Z,22.86
2022-09-28T13:28:46.458Z,23.15
2022-09-28T13:31:21.326Z,23.07
2022-09-28T13:33:50.101Z,23.33
2022-09-28T13:36:26.033Z,23.26
2022-09-28T13:38:56.757Z,22.53
2022-09-28T13:41:37.117Z,23.17
2022-09-28T13:44:12.803Z,23.09
2022-09-28T13:47:08.830Z,22.75
2022-09-28T13:50:01.738Z,23.20
2022-09-28T13:52:40.585Z,22.62
2022-09-28T13:55:35.848Z,21.28
2022-09-28T13:58:15.718Z,20.68
2022-09-28T14:00:51.041Z,20.96
2022-09-28T14:04:10.061Z,20.69
2022-09-28T14:06:57.083Z,19.58
2022-09-28T14:10:08.952Z,19.46
2022-09-28T14:12:51.334Z,19.13
2022-09-28T14:15:36.571Z,18.57
2022-09-28T14:18:29.326Z,18.15
2022-09-28T14:21:02.143Z,17.57
2022-09-28T14:24:22.795Z,17.24
2022-09-28T14:27:08.842Z,17.02
2022-09-28T14:30:05.918Z,17.50
2022-09-28T14:32:36.565Z,17.73
2022-09-28T14:35:30.857Z,18.19
2022-09-28T14:38:38.224Z,18.08
2022-09-28T14:41:19.689Z,17.55
2022-09-28T14:43:58.065Z,16.97
2022-09-28T14:46:25.043Z,16.83
2022-09-28T14:49:03.295Z,16.73
2022-09-28T14:51:57.661Z,16.56
2022-09-28T14:54:27.396Z,16.43
2022-09-28T14:56:56.489Z,16.11
2022-09-28T14:59:25.090Z,15.82
2022-09-28T15:02:09.019Z,15.66
2022-09-28T15:05:02.118Z,15.44
2022-09-28T15:07:46.276Z,15.24
2022-09-28T15:10:35.385Z,15.18
2022-09-28T15:13:27.448Z,15.16
2022-09-28T15:16:03.998Z,15.11
2022-09-28T15:19:12.872Z,15.08
2022-09-28T15:21:42.385Z,15.08
2022-09-28T15:24:25.908Z,14.95
2022-09-28T15:27:18.623Z,14.85
2022-09-28T15:30:22.918Z,14.76
2022-09-28T15:33:22.179Z,14.72
2022-09-28T15:36:03.791Z,14.62
2022-09-28T15:39:07.680Z,14.51
2022-09-28T15:41:56.693Z,14.43
2022-09-28T15:44:36.489Z,14.43
2022-09-28T15:47:27.556Z,14.40
2022-09-28T15:50:19.672Z,14.37
2022-09-28T15:53:05.865Z,14.28
2022-09-28T15:55:51.393Z,14.21
2022-09-28T15:58:32.745Z,14.13
2022-09-28T16:01:50.549Z,14.06
2022-09-28T16:04:42.610Z,13.97
2022-09-28T16:07:38.137Z,13.88
2022-09-28T16:10:34.599Z,13.82
2022-09-28T16:13:24.058Z,13.74
2022-09-28T16:16:16.230Z,13.67
2022-09-28T16:18:48.420Z,13.62
2022-09-28T16:21:28.505Z,13.59
2022-09-28T16:24:24.696Z,13.55
2022-09-28T16:27:01.795Z,13.52
2022-09-28T16:29:44.675Z,13.45
2022-09-28T16:33:00.920Z,13.37
2022-09-28T16:35:50.974Z,13.26
2022-09-28T16:38:38.884Z,13.19
2022-09-28T16:41:28.464Z,13.13
2022-09-28T16:44:25.428Z,13.07
2022-09-28T16:47:06.514Z,13.02
2022-09-28T16:49:33.420Z,12.98
2022-09-28T16:52:01.450Z,12.94
2022-09-28T16:55:22.756Z,12.89
2022-09-28T16:58:13.894Z,12.84
2022-09-28T17:01:02.056Z,12.81
2022-09-28T17:03:50.750Z,12.75
2022-09-28T17:06:34.575Z,12.71
2022-09-28T17:09:21.755Z,12.70
2022-09-28T17:11:55.574Z,12.69
2022-09-28T17:14:33.130Z,12.67
2022-09-28T17:17:08.947Z,12.66
2022-09-28T17:19:52.081Z,12.65
2022-09-28T17:22:39.273Z,12.63
2022-09-28T17:25:09.049Z,12.62
2022-09-28T17:27:57.104Z,12.65
2022-09-28T17:30:42.769Z,12.62
2022-09-28T17:33:30.984Z,12.63
2022-09-28T17:36:14.475Z,12.63
2022-09-28T17:38:56.791Z,12.63
2022-09-28T17:41:43.029Z,12.62
2022-09-28T17:44:31.198Z,12.61
2022-09-28T17:47:19.425Z,12.63
2022-09-28T17:50:29.418Z,12.62
2022-09-28T17:53:17.509Z,12.62
2022-09-28T17:56:06.523Z,12.61
2022-09-28T17:59:14.679Z,12.55
2022-09-28T18:02:02.846Z,12.50
2022-09-28T18:04:52.584Z,12.45
2022-09-28T18:07:47.551Z,12.40
2022-09-28T18:10:36.411Z,12.37
2022-09-28T18:13:25.128Z,12.35
2022-09-28T18:16:14.309Z,12.36
2022-09-28T18:18:47.285Z,12.31
2022-09-28T18:21:32.909Z,12.23
2022-09-28T18:24:21.041Z,12.14
2022-09-28T18:27:09.159Z,12.06
2022-09-28T18:29:57.394Z,12.02
2022-09-28T18:32:45.495Z,11.97
2022-09-28T18:35:34.017Z,11.87
2022-09-28T18:38:22.038Z,11.71
2022-09-28T18:41:15.017Z,11.55
2022-09-28T18:44:02.994Z,11.44
2022-09-28T18:46:51.181Z,11.33
2022-09-28T18:49:45.916Z,11.19
2022-09-28T18:52:36.558Z,11.10
2022-09-28T18:55:24.255Z,11.05
2022-09-28T18:58:12.947Z,10.99
2022-09-28T19:01:28.464Z,10.98
2022-09-28T19:04:15.707Z,10.98
2022-09-28T19:07:03.841Z,10.91
2022-09-28T19:09:52.783Z,10.81
2022-09-28T19:12:40.317Z,10.75
2022-09-28T19:15:28.440Z,10.75
2022-09-28T19:18:16.531Z,10.72
2022-09-28T19:21:18.402Z,10.70
2022-09-28T19:24:06.542Z,10.68
2022-09-28T19:26:54.629Z,10.65
2022-09-28T19:29:42.775Z,10.58
2022-09-28T19:32:30.939Z,10.50
2022-09-28T19:35:19.162Z,10.46
2022-09-28T19:38:07.294Z,10.32
2022-09-28T19:40:56.672Z,10.25
2022-09-28T19:43:45.035Z,10.21
2022-09-28T19:46:34.689Z,10.18
2022-09-28T19:49:24.448Z,10.19
2022-09-28T19:52:17.140Z,10.24
2022-09-28T19:55:06.314Z,10.26
2022-09-28T19:57:54.990Z,10.25
2022-09-28T20:00:42.774Z,10.24
2022-09-28T20:03:31.109Z,10.25
2022-09-28T20:06:19.527Z,10.27
2022-09-28T20:09:07.328Z,10.32
2022-09-28T20:11:55.598Z,10.37
2022-09-28T20:14:43.847Z,10.40
2022-09-28T20:17:32.235Z,10.43
2022-09-28T20:20:20.820Z,10.46
2022-09-28T20:23:09.380Z,10.45
2022-09-28T20:25:58.506Z,10.43
2022-09-28T20:28:46.692Z,10.41
2022-09-28T20:31:37.748Z,10.40
2022-09-28T20:34:25.983Z,10.36
2022-09-28T20:37:16.750Z,10.32
2022-09-28T20:40:04.813Z,10.28
2022-09-28T20:42:53.037Z,10.25
2022-09-28T20:45:41.272Z,10.16
2022-09-28T20:48:30.074Z,10.06
2022-09-28T20:51:19.578Z,9.94
2022-09-28T20:54:07.885Z,9.81
2022-09-28T20:56:56.077Z,9.71
2022-09-28T20:59:45.152Z,9.64
2022-09-28T21:02:33.369Z,9.59
2022-09-28T21:05:21.724Z,9.53
2022-09-28T21:08:09.838Z,9.47
2022-09-28T21:10:58.075Z,9.40
2022-09-28T21:13:46.354Z,9.33
2022-09-28T21:16:35.400Z,9.28
2022-09-28T21:19:27.925Z,9.22
2022-09-28T21:22:16.314Z,9.15
2022-09-28T21:25:05.172Z,9.10
2022-09-28T21:27:53.685Z,9.04
2022-09-28T21:30:45.200Z,8.98
2022-09-28T21:33:33.958Z,8.93
2022-09-28T21:36:22.130Z,8.91
2022-09-28T21:39:10.681Z,8.90
2022-09-28T21:41:58.527Z,8.89
2022-09-28T21:44:46.614Z,8.89
2022-09-28T21:47:34.713Z,8.88
2022-09-28T21:50:25.045Z,8.85
2022-09-28T21:53:12.692Z,8.84
2022-09-28T21:56:03.004Z,8.86
2022-09-28T21:58:50.808Z,8.89
2022-09-28T22:01:42.917Z,8.89
2022-09-28T22:04:30.675Z,8.88
2022-09-28T22:07:19.081Z,8.87
2022-09-28T22:10:10.895Z,8.86
2022-09-28T22:12:58.508Z,8.81
2022-09-28T22:15:52.670Z,8.81
2022-09-28T22:18:41.234Z,8.78
2022-09-28T22:21:32.279Z,8.76
2022-09-28T22:24:20.351Z,8.75
2022-09-28T22:27:08.848Z,8.73
2022-09-28T22:29:57.669Z,8.70
2022-09-28T22:32:46.154Z,8.66
2022-09-28T22:35:34.474Z,8.63
2022-09-28T22:38:25.795Z,8.58
2022-09-28T22:41:15.662Z,8.53
2022-09-28T22:44:07.940Z,8.49
2022-09-28T22:46:56.625Z,8.45
2022-09-28T22:49:44.752Z,8.39
2022-09-28T22:52:32.831Z,8.38
2022-09-28T22:55:20.465Z,8.36
2022-09-28T22:58:08.849Z,8.37
2022-09-28T23:01:04.664Z,8.40
2022-09-28T23:03:54.034Z,8.45
2022-09-28T23:06:41.884Z,8.51
2022-09-28T23:09:31.459Z,8.58
2022-09-28T23:12:19.883Z,8.63
2022-09-28T23:15:08.836Z,8.66
2022-09-28T23:17:56.852Z,8.70
2022-09-28T23:21:02.181Z,8.71
2022-09-28T23:24:11.897Z,8.74
2022-09-28T23:27:00.178Z,8.78
2022-09-28T23:29:53.898Z,8.79
2022-09-28T23:32:42.178Z,8.81
2022-09-28T23:35:30.265Z,8.79
2022-09-28T23:38:18.470Z,8.75
2022-09-28T23:41:06.949Z,8.74
2022-09-28T23:43:55.504Z,8.73
2022-09-28T23:46:43.829Z,8.67
2022-09-28T23:49:32.406Z,8.57
2022-09-28T23:52:20.574Z,8.54
2022-09-28T23:55:08.808Z,8.50
2022-09-28T23:57:58.273Z,8.51
